sensor_id;sensor_type;location;lat;lon;timestamp;temperature;humidity
18281;DHT22;9266;51.132;17.062;2023-04-06T00:00:32;-1.30;99.90
18281;DHT22;9266;51.132;17.062;2023-04-06T00:03:00;-1.20;99.90
18281;DHT22;9266;51.132;17.062;2023-04-06T00:05:27;-1.10;99.90
18281;DHT22;9266;51.132;17.062;2023-04-06T00:07:57;-1.00;99.90
18281;DHT22;9266;51.132;17.062;2023-04-06T00:10:24;-1.00;99.90
18281;DHT22;9266;51.132;17.062;2023-04-06T00:12:51;-1.10;99.90
18281;DHT22;9266;51.132;17.062;2023-04-06T00:15:18;-1.20;99.90
18281;DHT22;9266;51.132;17.062;2023-04-06T00:17:45;-1.30;99.90
18281;DHT22;9266;51.132;17.062;2023-04-06T00:20:13;-1.40;99.90
18281;DHT22;9266;51.132;17.062;2023-04-06T00:22:40;-1.40;99.90
18281;DHT22;9266;51.132;17.062;2023-04-06T00:25:08;-1.40;99.90
18281;DHT22;9266;51.132;17.062;2023-04-06T00:27:35;-1.30;99.90
18281;DHT22;9266;51.132;17.062;2023-04-06T00:30:03;-1.10;99.90
18281;DHT22;9266;51.132;17.062;2023-04-06T00:32:30;-0.90;99.90
18281;DHT22;9266;51.132;17.062;2023-04-06T00:34:57;-0.90;99.90
18281;DHT22;9266;51.132;17.062;2023-04-06T00:37:26;-0.90;99.90
18281;DHT22;9266;51.132;17.062;2023-04-06T00:39:53;-0.90;99.90
18281;DHT22;9266;51.132;17.062;2023-04-06T00:42:21;-0.90;99.90
18281;DHT22;9266;51.132;17.062;2023-04-06T00:44:52;-0.80;99.90
18281;DHT22;9266;51.132;17.062;2023-04-06T00:47:19;-0.90;99.90
18281;DHT22;9266;51.132;17.062;2023-04-06T00:49:46;-1.00;99.90
18281;DHT22;9266;51.132;17.062;2023-04-06T00:52:13;-1.00;99.90
18281;DHT22;9266;51.132;17.062;2023-04-06T00:54:41;-0.90;99.90
18281;DHT22;9266;51.132;17.062;2023-04-06T00:57:08;-0.90;99.90
18281;DHT22;9266;51.132;17.062;2023-04-06T00:59:35;-1.00;99.90
18281;DHT22;9266;51.132;17.062;2023-04-06T01:02:02;-1.10;99.90
18281;DHT22;9266;51.132;17.062;2023-04-06T01:04:30;-1.10;99.90
18281;DHT22;9266;51.132;17.062;2023-04-06T01:06:57;-1.20;99.90
18281;DHT22;9266;51.132;17.062;2023-04-06T01:09:24;-1.10;99.90
18281;DHT22;9266;51.132;17.062;2023-04-06T01:11:53;-1.20;99.90
18281;DHT22;9266;51.132;17.062;2023-04-06T01:14:21;-1.20;99.90
18281;DHT22;9266;51.132;17.062;2023-04-06T01:16:48;-1.20;99.90
18281;DHT22;9266;51.132;17.062;2023-04-06T01:19:15;-1.30;99.90
18281;DHT22;9266;51.132;17.062;2023-04-06T01:21:42;-1.30;99.90
18281;DHT22;9266;51.132;17.062;2023-04-06T01:24:11;-1.20;99.90
18281;DHT22;9266;51.132;17.062;2023-04-06T01:26:38;-1.20;99.90
18281;DHT22;9266;51.132;17.062;2023-04-06T01:29:05;-1.30;99.90
18281;DHT22;9266;51.132;17.062;2023-04-06T01:31:32;-1.40;99.90
18281;DHT22;9266;51.132;17.062;2023-04-06T01:34:00;-1.50;99.90
18281;DHT22;9266;51.132;17.062;2023-04-06T01:36:27;-1.50;99.90
18281;DHT22;9266;51.132;17.062;2023-04-06T01:38:54;-1.70;99.90
18281;DHT22;9266;51.132;17.062;2023-04-06T01:41:22;-1.50;99.90
18281;DHT22;9266;51.132;17.062;2023-04-06T01:43:49;-1.70;99.90
18281;DHT22;9266;51.132;17.062;2023-04-06T01:46:20;-1.80;99.90
18281;DHT22;9266;51.132;17.062;2023-04-06T01:48:47;-1.90;99.90
18281;DHT22;9266;51.132;17.062;2023-04-06T01:51:14;-1.80;99.90
18281;DHT22;9266;51.132;17.062;2023-04-06T01:53:42;-2.00;99.90
18281;DHT22;9266;51.132;17.062;2023-04-06T01:56:10;-1.90;99.90
18281;DHT22;9266;51.132;17.062;2023-04-06T01:58:38;-1.70;99.90
18281;DHT22;9266;51.132;17.062;2023-04-06T02:01:05;-1.60;99.90
18281;DHT22;9266;51.132;17.062;2023-04-06T02:03:32;-1.60;99.90
18281;DHT22;9266;51.132;17.062;2023-04-06T02:05:59;-1.60;99.90
18281;DHT22;9266;51.132;17.062;2023-04-06T02:08:26;-1.70;99.90
18281;DHT22;9266;51.132;17.062;2023-04-06T02:10:53;-1.80;99.90
18281;DHT22;9266;51.132;17.062;2023-04-06T02:13:20;-1.80;99.90
18281;DHT22;9266;51.132;17.062;2023-04-06T02:15:48;-1.70;99.90
18281;DHT22;9266;51.132;17.062;2023-04-06T02:18:15;-1.80;99.90
18281;DHT22;9266;51.132;17.062;2023-04-06T02:20:44;-1.90;99.90
18281;DHT22;9266;51.132;17.062;2023-04-06T02:23:11;-1.80;99.90
18281;DHT22;9266;51.132;17.062;2023-04-06T02:25:38;-1.60;99.90
18281;DHT22;9266;51.132;17.062;2023-04-06T02:28:05;-1.60;99.90
18281;DHT22;9266;51.132;17.062;2023-04-06T02:30:32;-1.60;99.90
18281;DHT22;9266;51.132;17.062;2023-04-06T02:33:01;-1.70;99.90
18281;DHT22;9266;51.132;17.062;2023-04-06T02:35:28;-1.80;99.90
18281;DHT22;9266;51.132;17.062;2023-04-06T02:37:56;-1.90;99.90
18281;DHT22;9266;51.132;17.062;2023-04-06T02:40:23;-1.80;99.90
18281;DHT22;9266;51.132;17.062;2023-04-06T02:42:50;-1.90;99.90
18281;DHT22;9266;51.132;17.062;2023-04-06T02:45:17;-1.80;99.90
18281;DHT22;9266;51.132;17.062;2023-04-06T02:47:44;-1.70;99.90
18281;DHT22;9266;51.132;17.062;2023-04-06T02:50:13;-1.70;99.90
18281;DHT22;9266;51.132;17.062;2023-04-06T02:52:41;-1.70;99.90
18281;DHT22;9266;51.132;17.062;2023-04-06T02:55:08;-1.70;99.90
18281;DHT22;9266;51.132;17.062;2023-04-06T02:57:35;-1.70;99.90
18281;DHT22;9266;51.132;17.062;2023-04-06T03:00:03;-2.00;99.90
18281;DHT22;9266;51.132;17.062;2023-04-06T03:02:32;-2.10;99.90
18281;DHT22;9266;51.132;17.062;2023-04-06T03:04:59;-2.00;99.90
18281;DHT22;9266;51.132;17.062;2023-04-06T03:07:27;-1.90;99.90
18281;DHT22;9266;51.132;17.062;2023-04-06T03:09:54;-1.90;99.90
18281;DHT22;9266;51.132;17.062;2023-04-06T03:12:21;-2.00;99.90
18281;DHT22;9266;51.132;17.062;2023-04-06T03:14:48;-2.00;99.90
18281;DHT22;9266;51.132;17.062;2023-04-06T03:17:15;-1.90;99.90
18281;DHT22;9266;51.132;17.062;2023-04-06T03:19:42;-1.90;99.90
18281;DHT22;9266;51.132;17.062;2023-04-06T03:22:09;-1.80;99.90
18281;DHT22;9266;51.132;17.062;2023-04-06T03:24:38;-1.80;99.90
18281;DHT22;9266;51.132;17.062;2023-04-06T03:27:05;-1.70;99.90
18281;DHT22;9266;51.132;17.062;2023-04-06T03:29:32;-1.80;99.90
18281;DHT22;9266;51.132;17.062;2023-04-06T03:31:59;-1.80;99.90
18281;DHT22;9266;51.132;17.062;2023-04-06T03:34:26;-1.80;99.90
18281;DHT22;9266;51.132;17.062;2023-04-06T03:36:53;-1.80;99.90
18281;DHT22;9266;51.132;17.062;2023-04-06T03:39:20;-1.90;99.90
18281;DHT22;9266;51.132;17.062;2023-04-06T03:41:48;-1.90;99.90
18281;DHT22;9266;51.132;17.062;2023-04-06T03:44:15;-2.00;99.90
18281;DHT22;9266;51.132;17.062;2023-04-06T03:46:42;-1.90;99.90
18281;DHT22;9266;51.132;17.062;2023-04-06T03:49:09;-1.90;99.90
18281;DHT22;9266;51.132;17.062;2023-04-06T03:51:36;-1.90;99.90
18281;DHT22;9266;51.132;17.062;2023-04-06T03:54:03;-1.90;99.90
18281;DHT22;9266;51.132;17.062;2023-04-06T03:56:30;-2.00;99.90
18281;DHT22;9266;51.132;17.062;2023-04-06T03:58:59;-2.10;99.90
18281;DHT22;9266;51.132;17.062;2023-04-06T04:01:27;-2.30;99.90
18281;DHT22;9266;51.132;17.062;2023-04-06T04:03:54;-2.40;99.90
18281;DHT22;9266;51.132;17.062;2023-04-06T04:06:21;-2.40;99.90
18281;DHT22;9266;51.132;17.062;2023-04-06T04:08:48;-2.40;99.90
18281;DHT22;9266;51.132;17.062;2023-04-06T04:11:15;-2.50;99.90
18281;DHT22;9266;51.132;17.062;2023-04-06T04:13:42;-2.40;99.90
18281;DHT22;9266;51.132;17.062;2023-04-06T04:16:11;-2.20;99.90
18281;DHT22;9266;51.132;17.062;2023-04-06T04:18:38;-2.20;99.90
18281;DHT22;9266;51.132;17.062;2023-04-06T04:21:05;-2.30;99.90
18281;DHT22;9266;51.132;17.062;2023-04-06T04:23:31;-2.20;99.90
18281;DHT22;9266;51.132;17.062;2023-04-06T04:25:58;-2.10;99.90
18281;DHT22;9266;51.132;17.062;2023-04-06T04:28:25;-2.00;99.90
18281;DHT22;9266;51.132;17.062;2023-04-06T04:30:52;-2.00;99.90
18281;DHT22;9266;51.132;17.062;2023-04-06T04:33:23;-2.00;99.90
18281;DHT22;9266;51.132;17.062;2023-04-06T04:35:50;-1.90;99.90
18281;DHT22;9266;51.132;17.062;2023-04-06T04:38:18;-2.00;99.90
18281;DHT22;9266;51.132;17.062;2023-04-06T04:40:45;-2.00;99.90
18281;DHT22;9266;51.132;17.062;2023-04-06T04:43:12;-1.90;99.90
18281;DHT22;9266;51.132;17.062;2023-04-06T04:45:39;-1.90;99.90
18281;DHT22;9266;51.132;17.062;2023-04-06T04:48:06;-1.70;99.90
18281;DHT22;9266;51.132;17.062;2023-04-06T04:50:35;-1.00;99.90
18281;DHT22;9266;51.132;17.062;2023-04-06T04:53:02;-0.70;99.90
18281;DHT22;9266;51.132;17.062;2023-04-06T04:55:31;-0.50;99.90
18281;DHT22;9266;51.132;17.062;2023-04-06T04:57:58;0.00;99.90
18281;DHT22;9266;51.132;17.062;2023-04-06T05:00:26;0.30;99.90
18281;DHT22;9266;51.132;17.062;2023-04-06T05:02:53;1.00;99.90
18281;DHT22;9266;51.132;17.062;2023-04-06T05:05:20;0.80;99.90
18281;DHT22;9266;51.132;17.062;2023-04-06T05:07:48;0.40;99.90
18281;DHT22;9266;51.132;17.062;2023-04-06T05:10:15;0.20;99.90
18281;DHT22;9266;51.132;17.062;2023-04-06T05:12:42;0.10;99.90
18281;DHT22;9266;51.132;17.062;2023-04-06T05:15:10;0.30;99.90
18281;DHT22;9266;51.132;17.062;2023-04-06T05:17:37;0.50;99.90
18281;DHT22;9266;51.132;17.062;2023-04-06T05:20:05;1.20;99.90
18281;DHT22;9266;51.132;17.062;2023-04-06T05:22:32;2.00;99.90
18281;DHT22;9266;51.132;17.062;2023-04-06T05:25:01;1.40;1.00
18281;DHT22;9266;51.132;17.062;2023-04-06T05:27:28;1.90;99.90
18281;DHT22;9266;51.132;17.062;2023-04-06T05:29:55;2.50;1.00
18281;DHT22;9266;51.132;17.062;2023-04-06T05:32:22;2.40;1.00
18281;DHT22;9266;51.132;17.062;2023-04-06T05:34:50;2.10;1.00
18281;DHT22;9266;51.132;17.062;2023-04-06T05:37:17;1.80;1.00
18281;DHT22;9266;51.132;17.062;2023-04-06T05:39:44;1.40;1.00
18281;DHT22;9266;51.132;17.062;2023-04-06T05:42:12;1.10;99.90
18281;DHT22;9266;51.132;17.062;2023-04-06T05:44:41;1.00;99.90
18281;DHT22;9266;51.132;17.062;2023-04-06T05:47:08;1.90;99.90
18281;DHT22;9266;51.132;17.062;2023-04-06T05:49:35;3.20;1.00
18281;DHT22;9266;51.132;17.062;2023-04-06T05:52:02;3.40;1.00
18281;DHT22;9266;51.132;17.062;2023-04-06T05:54:30;3.40;99.90
18281;DHT22;9266;51.132;17.062;2023-04-06T05:56:57;3.70;99.90
18281;DHT22;9266;51.132;17.062;2023-04-06T05:59:25;4.50;99.90
18281;DHT22;9266;51.132;17.062;2023-04-06T06:01:52;5.00;1.00
18281;DHT22;9266;51.132;17.062;2023-04-06T06:04:19;4.70;1.00
18281;DHT22;9266;51.132;17.062;2023-04-06T06:06:46;5.10;99.90
18281;DHT22;9266;51.132;17.062;2023-04-06T06:09:13;4.50;99.90
18281;DHT22;9266;51.132;17.062;2023-04-06T06:11:40;4.00;1.00
18281;DHT22;9266;51.132;17.062;2023-04-06T06:14:08;4.30;1.00
18281;DHT22;9266;51.132;17.062;2023-04-06T06:16:36;4.60;99.90
18281;DHT22;9266;51.132;17.062;2023-04-06T06:19:03;4.40;99.90
18281;DHT22;9266;51.132;17.062;2023-04-06T06:21:30;4.90;99.90
18281;DHT22;9266;51.132;17.062;2023-04-06T06:23:57;5.10;99.90
18281;DHT22;9266;51.132;17.062;2023-04-06T06:26:24;4.80;99.90
18281;DHT22;9266;51.132;17.062;2023-04-06T06:28:51;5.50;99.90
18281;DHT22;9266;51.132;17.062;2023-04-06T06:31:19;5.70;99.90
18281;DHT22;9266;51.132;17.062;2023-04-06T06:33:49;5.70;99.90
18281;DHT22;9266;51.132;17.062;2023-04-06T06:36:17;5.40;99.90
18281;DHT22;9266;51.132;17.062;2023-04-06T06:38:43;5.80;99.90
18281;DHT22;9266;51.132;17.062;2023-04-06T06:41:12;6.90;99.90
18281;DHT22;9266;51.132;17.062;2023-04-06T06:43:39;6.30;1.00
18281;DHT22;9266;51.132;17.062;2023-04-06T06:46:06;6.10;1.00
18281;DHT22;9266;51.132;17.062;2023-04-06T06:48:33;6.50;82.40
18281;DHT22;9266;51.132;17.062;2023-04-06T06:51:01;7.80;1.00
18281;DHT22;9266;51.132;17.062;2023-04-06T06:53:28;6.80;1.00
18281;DHT22;9266;51.132;17.062;2023-04-06T06:55:55;7.00;1.00
18281;DHT22;9266;51.132;17.062;2023-04-06T06:58:22;7.10;1.00
18281;DHT22;9266;51.132;17.062;2023-04-06T07:00:49;7.40;1.00
18281;DHT22;9266;51.132;17.062;2023-04-06T07:03:16;7.20;1.00
18281;DHT22;9266;51.132;17.062;2023-04-06T07:05:47;7.30;1.00
18281;DHT22;9266;51.132;17.062;2023-04-06T07:08:19;6.70;1.00
18281;DHT22;9266;51.132;17.062;2023-04-06T07:10:46;6.50;1.00
18281;DHT22;9266;51.132;17.062;2023-04-06T07:13:14;6.20;1.00
18281;DHT22;9266;51.132;17.062;2023-04-06T07:15:44;6.40;1.00
18281;DHT22;9266;51.132;17.062;2023-04-06T07:18:11;7.80;1.00
18281;DHT22;9266;51.132;17.062;2023-04-06T07:20:38;8.90;99.90
18281;DHT22;9266;51.132;17.062;2023-04-06T07:23:06;9.30;93.10
18281;DHT22;9266;51.132;17.062;2023-04-06T07:25:34;7.70;86.10
18281;DHT22;9266;51.132;17.062;2023-04-06T07:28:02;8.00;92.60
18281;DHT22;9266;51.132;17.062;2023-04-06T07:30:29;9.00;73.80
18281;DHT22;9266;51.132;17.062;2023-04-06T07:32:57;8.80;20.60
18281;DHT22;9266;51.132;17.062;2023-04-06T07:35:26;9.00;22.30
18281;DHT22;9266;51.132;17.062;2023-04-06T07:37:53;9.00;1.00
18281;DHT22;9266;51.132;17.062;2023-04-06T07:40:20;9.30;1.00
18281;DHT22;9266;51.132;17.062;2023-04-06T07:42:49;8.40;1.00
18281;DHT22;9266;51.132;17.062;2023-04-06T07:45:16;8.60;1.00
18281;DHT22;9266;51.132;17.062;2023-04-06T07:47:43;9.20;1.00
18281;DHT22;9266;51.132;17.062;2023-04-06T07:50:11;8.90;1.00
18281;DHT22;9266;51.132;17.062;2023-04-06T07:52:38;8.50;1.00
18281;DHT22;9266;51.132;17.062;2023-04-06T07:55:06;9.20;1.00
18281;DHT22;9266;51.132;17.062;2023-04-06T07:57:33;9.80;1.00
18281;DHT22;9266;51.132;17.062;2023-04-06T08:00:02;9.60;1.00
18281;DHT22;9266;51.132;17.062;2023-04-06T08:02:29;9.30;1.00
18281;DHT22;9266;51.132;17.062;2023-04-06T08:04:56;9.90;1.00
18281;DHT22;9266;51.132;17.062;2023-04-06T08:07:23;10.10;1.00
18281;DHT22;9266;51.132;17.062;2023-04-06T08:09:52;10.50;1.00
18281;DHT22;9266;51.132;17.062;2023-04-06T08:12:20;11.10;1.00
18281;DHT22;9266;51.132;17.062;2023-04-06T08:14:47;10.30;1.00
18281;DHT22;9266;51.132;17.062;2023-04-06T08:17:16;9.70;1.00
18281;DHT22;9266;51.132;17.062;2023-04-06T08:19:43;8.80;1.00
18281;DHT22;9266;51.132;17.062;2023-04-06T08:22:10;8.80;1.00
18281;DHT22;9266;51.132;17.062;2023-04-06T08:24:37;7.50;1.00
18281;DHT22;9266;51.132;17.062;2023-04-06T08:27:05;6.70;1.00
18281;DHT22;9266;51.132;17.062;2023-04-06T08:29:32;7.20;1.00
18281;DHT22;9266;51.132;17.062;2023-04-06T08:31:59;7.50;1.00
18281;DHT22;9266;51.132;17.062;2023-04-06T08:34:30;7.90;1.00
18281;DHT22;9266;51.132;17.062;2023-04-06T08:36:57;8.40;1.00
18281;DHT22;9266;51.132;17.062;2023-04-06T08:39:24;9.40;1.00
18281;DHT22;9266;51.132;17.062;2023-04-06T08:41:53;10.20;1.00
18281;DHT22;9266;51.132;17.062;2023-04-06T08:44:22;10.10;1.00
18281;DHT22;9266;51.132;17.062;2023-04-06T08:46:49;9.90;1.00
18281;DHT22;9266;51.132;17.062;2023-04-06T08:49:18;9.20;1.00
18281;DHT22;9266;51.132;17.062;2023-04-06T08:51:47;9.40;1.00
18281;DHT22;9266;51.132;17.062;2023-04-06T08:54:14;8.90;1.00
18281;DHT22;9266;51.132;17.062;2023-04-06T08:56:42;8.60;1.00
18281;DHT22;9266;51.132;17.062;2023-04-06T08:59:10;8.40;1.00
18281;DHT22;9266;51.132;17.062;2023-04-06T09:01:40;8.20;1.00
18281;DHT22;9266;51.132;17.062;2023-04-06T09:04:08;8.70;1.00
18281;DHT22;9266;51.132;17.062;2023-04-06T09:06:36;8.80;1.00
18281;DHT22;9266;51.132;17.062;2023-04-06T09:09:05;8.60;1.00
18281;DHT22;9266;51.132;17.062;2023-04-06T09:11:45;8.40;1.00
18281;DHT22;9266;51.132;17.062;2023-04-06T09:14:12;6.40;1.00
18281;DHT22;9266;51.132;17.062;2023-04-06T09:16:40;6.60;1.00
18281;DHT22;9266;51.132;17.062;2023-04-06T09:19:08;6.70;1.00
18281;DHT22;9266;51.132;17.062;2023-04-06T09:21:36;6.50;1.00
18281;DHT22;9266;51.132;17.062;2023-04-06T09:24:05;6.40;1.00
18281;DHT22;9266;51.132;17.062;2023-04-06T09:26:43;6.30;1.00
18281;DHT22;9266;51.132;17.062;2023-04-06T09:29:10;6.00;1.00
18281;DHT22;9266;51.132;17.062;2023-04-06T09:31:48;6.70;1.00
18281;DHT22;9266;51.132;17.062;2023-04-06T09:34:20;5.80;1.00
18281;DHT22;9266;51.132;17.062;2023-04-06T09:36:48;5.90;1.00
18281;DHT22;9266;51.132;17.062;2023-04-06T09:39:20;6.20;1.00
18281;DHT22;9266;51.132;17.062;2023-04-06T09:41:50;6.20;1.00
18281;DHT22;9266;51.132;17.062;2023-04-06T09:44:18;6.60;1.00
18281;DHT22;9266;51.132;17.062;2023-04-06T09:46:46;6.70;1.00
18281;DHT22;9266;51.132;17.062;2023-04-06T09:49:13;8.40;1.00
18281;DHT22;9266;51.132;17.062;2023-04-06T09:51:44;6.60;1.00
18281;DHT22;9266;51.132;17.062;2023-04-06T09:54:18;6.50;1.00
18281;DHT22;9266;51.132;17.062;2023-04-06T09:56:47;6.70;1.00
18281;DHT22;9266;51.132;17.062;2023-04-06T09:59:20;6.50;1.00
18281;DHT22;9266;51.132;17.062;2023-04-06T10:01:51;6.60;1.00
18281;DHT22;9266;51.132;17.062;2023-04-06T10:04:26;6.60;1.00
18281;DHT22;9266;51.132;17.062;2023-04-06T10:06:55;6.50;1.00
18281;DHT22;9266;51.132;17.062;2023-04-06T10:09:27;6.50;1.00
18281;DHT22;9266;51.132;17.062;2023-04-06T10:11:55;6.40;1.00
18281;DHT22;9266;51.132;17.062;2023-04-06T10:14:22;6.30;1.00
18281;DHT22;9266;51.132;17.062;2023-04-06T10:16:50;6.90;1.00
18281;DHT22;9266;51.132;17.062;2023-04-06T10:19:22;6.60;1.00
18281;DHT22;9266;51.132;17.062;2023-04-06T10:21:54;6.80;1.00
18281;DHT22;9266;51.132;17.062;2023-04-06T10:24:24;7.00;1.00
18281;DHT22;9266;51.132;17.062;2023-04-06T10:26:58;6.80;1.00
18281;DHT22;9266;51.132;17.062;2023-04-06T10:29:25;7.00;1.00
18281;DHT22;9266;51.132;17.062;2023-04-06T10:31:52;6.60;1.00
18281;DHT22;9266;51.132;17.062;2023-04-06T10:34:21;6.60;1.00
18281;DHT22;9266;51.132;17.062;2023-04-06T10:36:48;6.60;1.00
18281;DHT22;9266;51.132;17.062;2023-04-06T10:39:25;6.80;1.00
18281;DHT22;9266;51.132;17.062;2023-04-06T10:41:53;6.50;1.00
18281;DHT22;9266;51.132;17.062;2023-04-06T10:44:24;6.40;1.00
18281;DHT22;9266;51.132;17.062;2023-04-06T10:46:55;6.90;1.00
18281;DHT22;9266;51.132;17.062;2023-04-06T10:49:24;7.50;1.00
18281;DHT22;9266;51.132;17.062;2023-04-06T10:51:53;8.20;1.00
18281;DHT22;9266;51.132;17.062;2023-04-06T10:54:21;8.60;1.00
18281;DHT22;9266;51.132;17.062;2023-04-06T10:56:52;8.00;1.00
18281;DHT22;9266;51.132;17.062;2023-04-06T10:59:19;7.30;1.00
18281;DHT22;9266;51.132;17.062;2023-04-06T11:01:47;7.00;1.00
18281;DHT22;9266;51.132;17.062;2023-04-06T11:04:16;6.80;1.00
18281;DHT22;9266;51.132;17.062;2023-04-06T11:06:46;6.60;1.00
18281;DHT22;9266;51.132;17.062;2023-04-06T11:09:23;6.90;1.00
18281;DHT22;9266;51.132;17.062;2023-04-06T11:11:53;7.00;1.00
18281;DHT22;9266;51.132;17.062;2023-04-06T11:14:22;7.20;1.00
18281;DHT22;9266;51.132;17.062;2023-04-06T11:16:49;7.40;1.00
18281;DHT22;9266;51.132;17.062;2023-04-06T11:19:17;7.60;1.00
18281;DHT22;9266;51.132;17.062;2023-04-06T11:21:45;7.40;1.00
18281;DHT22;9266;51.132;17.062;2023-04-06T11:24:15;7.60;1.00
18281;DHT22;9266;51.132;17.062;2023-04-06T11:26:43;8.10;1.00
18281;DHT22;9266;51.132;17.062;2023-04-06T11:29:13;7.70;1.00
18281;DHT22;9266;51.132;17.062;2023-04-06T11:31:41;7.40;1.00
18281;DHT22;9266;51.132;17.062;2023-04-06T11:34:12;7.20;1.00
18281;DHT22;9266;51.132;17.062;2023-04-06T11:36:41;7.10;1.00
18281;DHT22;9266;51.132;17.062;2023-04-06T11:39:10;6.70;1.00
18281;DHT22;9266;51.132;17.062;2023-04-06T11:41:37;6.80;1.00
18281;DHT22;9266;51.132;17.062;2023-04-06T11:44:05;7.20;1.00
18281;DHT22;9266;51.132;17.062;2023-04-06T11:46:34;7.20;1.00
18281;DHT22;9266;51.132;17.062;2023-04-06T11:49:01;7.30;1.00
18281;DHT22;9266;51.132;17.062;2023-04-06T11:51:28;7.50;1.00
18281;DHT22;9266;51.132;17.062;2023-04-06T11:53:55;7.50;1.00
18281;DHT22;9266;51.132;17.062;2023-04-06T11:56:26;7.70;1.00
18281;DHT22;9266;51.132;17.062;2023-04-06T11:58:59;7.50;1.00
18281;DHT22;9266;51.132;17.062;2023-04-06T12:01:26;7.60;1.00
18281;DHT22;9266;51.132;17.062;2023-04-06T12:03:54;7.70;1.00
18281;DHT22;9266;51.132;17.062;2023-04-06T12:06:22;7.60;1.00
18281;DHT22;9266;51.132;17.062;2023-04-06T12:08:49;7.60;1.00
18281;DHT22;9266;51.132;17.062;2023-04-06T12:11:16;7.30;1.00
18281;DHT22;9266;51.132;17.062;2023-04-06T12:13:45;6.80;1.00
18281;DHT22;9266;51.132;17.062;2023-04-06T12:16:15;6.90;1.00
18281;DHT22;9266;51.132;17.062;2023-04-06T12:18:42;7.10;1.00
18281;DHT22;9266;51.132;17.062;2023-04-06T12:21:10;7.20;1.00
18281;DHT22;9266;51.132;17.062;2023-04-06T12:23:37;7.30;1.00
18281;DHT22;9266;51.132;17.062;2023-04-06T12:26:04;7.20;1.00
18281;DHT22;9266;51.132;17.062;2023-04-06T12:28:31;7.40;1.00
18281;DHT22;9266;51.132;17.062;2023-04-06T12:30:58;7.40;1.00
18281;DHT22;9266;51.132;17.062;2023-04-06T12:33:26;7.50;1.00
18281;DHT22;9266;51.132;17.062;2023-04-06T12:35:53;7.40;1.00
18281;DHT22;9266;51.132;17.062;2023-04-06T12:38:22;7.40;1.00
18281;DHT22;9266;51.132;17.062;2023-04-06T12:40:49;7.60;1.00
18281;DHT22;9266;51.132;17.062;2023-04-06T12:43:16;8.00;1.00
18281;DHT22;9266;51.132;17.062;2023-04-06T12:45:43;7.80;1.00
18281;DHT22;9266;51.132;17.062;2023-04-06T12:48:11;7.80;1.00
18281;DHT22;9266;51.132;17.062;2023-04-06T12:50:38;8.00;1.00
18281;DHT22;9266;51.132;17.062;2023-04-06T12:53:06;8.00;1.00
18281;DHT22;9266;51.132;17.062;2023-04-06T12:55:34;7.60;1.00
18281;DHT22;9266;51.132;17.062;2023-04-06T12:58:01;5.40;1.00
18281;DHT22;9266;51.132;17.062;2023-04-06T13:00:28;9.30;1.00
18281;DHT22;9266;51.132;17.062;2023-04-06T13:02:56;7.70;1.00
18281;DHT22;9266;51.132;17.062;2023-04-06T13:05:23;7.60;1.00
18281;DHT22;9266;51.132;17.062;2023-04-06T13:07:51;7.70;1.00
18281;DHT22;9266;51.132;17.062;2023-04-06T13:10:18;8.10;1.00
18281;DHT22;9266;51.132;17.062;2023-04-06T13:12:47;8.00;1.00
18281;DHT22;9266;51.132;17.062;2023-04-06T13:15:14;7.90;1.00
18281;DHT22;9266;51.132;17.062;2023-04-06T13:17:42;7.90;1.00
18281;DHT22;9266;51.132;17.062;2023-04-06T13:20:09;7.80;1.00
18281;DHT22;9266;51.132;17.062;2023-04-06T13:22:37;7.70;1.00
18281;DHT22;9266;51.132;17.062;2023-04-06T13:25:04;7.70;1.00
18281;DHT22;9266;51.132;17.062;2023-04-06T13:27:31;7.70;1.00
18281;DHT22;9266;51.132;17.062;2023-04-06T13:30:01;7.80;1.00
18281;DHT22;9266;51.132;17.062;2023-04-06T13:32:29;7.90;1.00
18281;DHT22;9266;51.132;17.062;2023-04-06T13:34:57;7.70;1.00
18281;DHT22;9266;51.132;17.062;2023-04-06T13:37:24;7.50;1.00
18281;DHT22;9266;51.132;17.062;2023-04-06T13:39:51;7.60;1.00
18281;DHT22;9266;51.132;17.062;2023-04-06T13:42:18;7.70;1.00
18281;DHT22;9266;51.132;17.062;2023-04-06T13:44:45;7.80;1.00
18281;DHT22;9266;51.132;17.062;2023-04-06T13:47:14;7.90;1.00
18281;DHT22;9266;51.132;17.062;2023-04-06T13:49:41;8.00;1.00
18281;DHT22;9266;51.132;17.062;2023-04-06T13:52:09;7.80;1.00
18281;DHT22;9266;51.132;17.062;2023-04-06T13:54:36;7.80;1.00
18281;DHT22;9266;51.132;17.062;2023-04-06T13:57:03;7.80;1.00
18281;DHT22;9266;51.132;17.062;2023-04-06T13:59:33;7.60;1.00
18281;DHT22;9266;51.132;17.062;2023-04-06T14:02:00;7.90;1.00
18281;DHT22;9266;51.132;17.062;2023-04-06T14:04:29;7.80;1.00
18281;DHT22;9266;51.132;17.062;2023-04-06T14:06:56;7.90;1.00
18281;DHT22;9266;51.132;17.062;2023-04-06T14:09:23;7.90;1.00
18281;DHT22;9266;51.132;17.062;2023-04-06T14:11:50;7.90;1.00
18281;DHT22;9266;51.132;17.062;2023-04-06T14:14:18;7.80;1.00
18281;DHT22;9266;51.132;17.062;2023-04-06T14:16:45;7.80;1.00
18281;DHT22;9266;51.132;17.062;2023-04-06T14:19:14;7.90;1.00
18281;DHT22;9266;51.132;17.062;2023-04-06T14:21:45;7.90;1.00
18281;DHT22;9266;51.132;17.062;2023-04-06T14:24:12;7.80;1.00
18281;DHT22;9266;51.132;17.062;2023-04-06T14:26:40;8.10;1.00
18281;DHT22;9266;51.132;17.062;2023-04-06T14:29:08;8.30;1.00
18281;DHT22;9266;51.132;17.062;2023-04-06T14:31:36;8.20;1.00
18281;DHT22;9266;51.132;17.062;2023-04-06T14:34:03;8.10;1.00
18281;DHT22;9266;51.132;17.062;2023-04-06T14:36:31;8.20;1.00
18281;DHT22;9266;51.132;17.062;2023-04-06T14:39:04;8.10;1.00
18281;DHT22;9266;51.132;17.062;2023-04-06T14:41:32;7.90;1.00
18281;DHT22;9266;51.132;17.062;2023-04-06T14:43:59;7.80;1.00
18281;DHT22;9266;51.132;17.062;2023-04-06T14:46:27;7.90;1.00
18281;DHT22;9266;51.132;17.062;2023-04-06T14:48:54;7.90;1.00
18281;DHT22;9266;51.132;17.062;2023-04-06T14:51:24;8.30;1.00
18281;DHT22;9266;51.132;17.062;2023-04-06T14:53:52;8.30;1.00
18281;DHT22;9266;51.132;17.062;2023-04-06T14:56:22;8.40;1.00
18281;DHT22;9266;51.132;17.062;2023-04-06T14:58:50;8.50;1.00
18281;DHT22;9266;51.132;17.062;2023-04-06T15:01:18;8.20;1.00
18281;DHT22;9266;51.132;17.062;2023-04-06T15:03:46;8.30;1.00
18281;DHT22;9266;51.132;17.062;2023-04-06T15:06:13;8.30;1.00
18281;DHT22;9266;51.132;17.062;2023-04-06T15:08:41;8.30;1.00
18281;DHT22;9266;51.132;17.062;2023-04-06T15:11:09;8.10;1.00
18281;DHT22;9266;51.132;17.062;2023-04-06T15:13:39;8.20;1.00
18281;DHT22;9266;51.132;17.062;2023-04-06T15:16:07;8.30;1.00
18281;DHT22;9266;51.132;17.062;2023-04-06T15:18:34;8.10;1.00
18281;DHT22;9266;51.132;17.062;2023-04-06T15:21:01;8.10;1.00
18281;DHT22;9266;51.132;17.062;2023-04-06T15:23:29;8.10;1.00
18281;DHT22;9266;51.132;17.062;2023-04-06T15:25:56;8.10;1.00
18281;DHT22;9266;51.132;17.062;2023-04-06T15:28:23;8.10;1.00
18281;DHT22;9266;51.132;17.062;2023-04-06T15:30:53;8.20;1.00
18281;DHT22;9266;51.132;17.062;2023-04-06T15:33:21;10.80;1.00
18281;DHT22;9266;51.132;17.062;2023-04-06T15:35:48;8.30;1.00
18281;DHT22;9266;51.132;17.062;2023-04-06T15:38:16;8.40;1.00
18281;DHT22;9266;51.132;17.062;2023-04-06T15:40:44;8.50;1.00
18281;DHT22;9266;51.132;17.062;2023-04-06T15:43:12;8.20;1.00
18281;DHT22;9266;51.132;17.062;2023-04-06T15:45:39;8.00;1.00
18281;DHT22;9266;51.132;17.062;2023-04-06T15:48:08;8.10;1.00
18281;DHT22;9266;51.132;17.062;2023-04-06T15:50:35;8.10;1.00
18281;DHT22;9266;51.132;17.062;2023-04-06T15:53:02;7.90;1.00